OOCL California — VRWC8 — position and weather

sailwx.info

Track history (hours):
 
Tides and Currents Weather Stations Pressure Air Temp Water Temp Dewpoint Dewpoint Depression Visibility Wind Speed Wind Dir Waves Ship Positions

OOCL California

Last reported at 2016-May-25 21:03 UTC. Time now 2016-May-26 08:47 UTC.
Position N 24°59' E 119°46'.

Length 276 m; beam 40 m; draft 14 m.

Type: Ship. MMSI: 477704000.

Date/timePositionNaut miles runAvg speedWind from/ knotsBaromVisibWave heightAir tempDewpointWater temp
2016-May-25 21:03N 24°59' E 119°46'4116.5
2016-May-25 18:33N 24°32' E 119°12'2016.1
2016-May-25 17:17N 24°18' E 118°55'3316.9
2016-May-25 15:18N 23°56' E 118°27'11116.3
2016-May-25 08:31N 22°50' E 116°51'13316.2
2016-May-25 00:19N 22°06' E 114°35'1215.5
2016-May-24 23:33N 22°06' E 114°22'1812.3
2016-May-24 22:06N 22°16' E 114°06'4 7.9
2016-May-24 21:33N 22°21' E 114°07'0 0.1
2016-May-24 20:30N 22°21' E 114°07'0 0.0
2016-May-24 17:30N 22°21' E 114°07'0 0.0
2016-May-24 09:33N 22°21' E 114°07'13 6.1
2016-May-24 07:26N 22°09' E 114°13'1011.9
2016-May-24 06:33N 22°07' E 114°24'1413.7
2016-May-24 05:34N 21°53' E 114°23'  
2016-May-21 00:32N 01°16' E 104°09'1616.2
2016-May-20 23:33N 01°12' E 103°54'8 8.0
2016-May-20 22:33N 01°15' E 103°47'0 0.2
2016-May-20 21:26N 01°16' E 103°47'0 0.0
2016-May-20 20:26N 01°16' E 103°47'0 0.1
2016-May-20 19:32N 01°16' E 103°47'0 0.1
2016-May-20 18:32N 01°16' E 103°47'0 0.0
2016-May-20 17:32N 01°16' E 103°47'0 0.1
2016-May-20 16:32N 01°16' E 103°47'0 0.1
2016-May-20 15:32N 01°16' E 103°47'0 0.0
2016-May-20 14:32N 01°16' E 103°47'0 0.0
2016-May-20 13:32N 01°16' E 103°47'0 0.0
2016-May-20 12:32N 01°16' E 103°47'0 0.0
2016-May-20 11:32N 01°16' E 103°47'0 0.0
2016-May-20 10:32N 01°16' E 103°47'0 0.1
2016-May-20 09:32N 01°16' E 103°47'0 0.1
2016-May-20 08:34N 01°16' E 103°47'7 6.6
2016-May-20 07:34N 01°13' E 103°41'9 9.2
2016-May-20 06:33N 01°10' E 103°32'3 3.0
2016-May-20 05:34N 01°10' E 103°29'6710.6
2016-May-19 23:14N 01°46' E 102°33'1213.3
2016-May-19 22:21N 01°51' E 102°22'1113.0
2016-May-19 21:31N 01°56' E 102°12'1412.7
2016-May-19 20:23N 02°05' E 102°01'  
Track history (hours):
 
Tides and Currents Weather Stations Pressure Air Temp Water Temp Dewpoint Dewpoint Depression Visibility Wind Speed Wind Dir Waves Ship Positions

OOCL California

Last reported at 2016-May-25 21:03 UTC. Time now 2016-May-26 08:47 UTC.
Position N 24°59' E 119°46'.

Length 276 m; beam 40 m; draft 14 m.

Type: Ship. MMSI: 477704000.

Date/timePositionNaut miles runAvg speedWind from/ knotsBaromVisibWave heightAir tempDewpointWater temp
2016-May-25 21:03N 24°59' E 119°46'4116.5
2016-May-25 18:33N 24°32' E 119°12'2016.1
2016-May-25 17:17N 24°18' E 118°55'3316.9
2016-May-25 15:18N 23°56' E 118°27'11116.3
2016-May-25 08:31N 22°50' E 116°51'13316.2
2016-May-25 00:19N 22°06' E 114°35'1215.5
2016-May-24 23:33N 22°06' E 114°22'1812.3
2016-May-24 22:06N 22°16' E 114°06'4 7.9
2016-May-24 21:33N 22°21' E 114°07'0 0.1
2016-May-24 20:30N 22°21' E 114°07'0 0.0
2016-May-24 17:30N 22°21' E 114°07'0 0.0
2016-May-24 09:33N 22°21' E 114°07'13 6.1
2016-May-24 07:26N 22°09' E 114°13'1011.9
2016-May-24 06:33N 22°07' E 114°24'1413.7
2016-May-24 05:34N 21°53' E 114°23'  
2016-May-21 00:32N 01°16' E 104°09'1616.2
2016-May-20 23:33N 01°12' E 103°54'8 8.0
2016-May-20 22:33N 01°15' E 103°47'0 0.2
2016-May-20 21:26N 01°16' E 103°47'0 0.0
2016-May-20 20:26N 01°16' E 103°47'0 0.1
2016-May-20 19:32N 01°16' E 103°47'0 0.1
2016-May-20 18:32N 01°16' E 103°47'0 0.0
2016-May-20 17:32N 01°16' E 103°47'0 0.1
2016-May-20 16:32N 01°16' E 103°47'0 0.1
2016-May-20 15:32N 01°16' E 103°47'0 0.0
2016-May-20 14:32N 01°16' E 103°47'0 0.0
2016-May-20 13:32N 01°16' E 103°47'0 0.0
2016-May-20 12:32N 01°16' E 103°47'0 0.0
2016-May-20 11:32N 01°16' E 103°47'0 0.0
2016-May-20 10:32N 01°16' E 103°47'0 0.1
2016-May-20 09:32N 01°16' E 103°47'0 0.1
2016-May-20 08:34N 01°16' E 103°47'7 6.6
2016-May-20 07:34N 01°13' E 103°41'9 9.2
2016-May-20 06:33N 01°10' E 103°32'3 3.0
2016-May-20 05:34N 01°10' E 103°29'6710.6
2016-May-19 23:14N 01°46' E 102°33'1213.3
2016-May-19 22:21N 01°51' E 102°22'1113.0
2016-May-19 21:31N 01°56' E 102°12'1412.7
2016-May-19 20:23N 02°05' E 102°01'  

Dump ship's entire track history